| time (UTC) | temp C | wind direction | speed KPH | gust KPH | rain 1hr cm | rain 24hr cm | rain mn cm | humidity % | barometer mb |
| 20260508011532 | 10 | 0 | 0.0 | 0.0 | 0.00 | 0.97 | 0.91 | 74 | 1008.5 |
| 20260508010031 | 10 | 0 | 0.0 | 0.0 | 0.00 | 0.97 | 0.91 | 72 | 1008.6 |
| 20260508004529 | 11 | 0 | 0.0 | 0.0 | 0.00 | 0.97 | 0.91 | 66 | 1008.5 |
| 20260508003030 | 12 | 0 | 0.0 | 0.0 | 0.00 | 0.97 | 0.91 | 63 | 1008.2 |
| 20260508001528 | 13 | 0 | 0.0 | 0.0 | 0.00 | 0.97 | 0.91 | 60 | 1008.0 |
| 20260508000029 | 14 | 0 | 0.0 | 0.0 | 0.00 | 0.97 | 0.91 | 54 | 1007.8 |
| 20260507234536 | 15 | 0 | 0.0 | 0.0 | 0.00 | 0.97 | 0.91 | 54 | 1007.7 |
| 20260507233028 | 16 | 0 | 0.0 | 6.4 | 0.00 | 0.97 | 0.91 | 43 | 1007.6 |
| 20260507231530 | 16 | 303 | 1.6 | 9.7 | 0.00 | 0.97 | 0.91 | 40 | 1007.5 |
| 20260507230028 | 17 | 0 | 0.0 | 9.7 | 0.00 | 0.97 | 0.91 | 39 | 1007.4 |
| 20260507224529 | 17 | 0 | 0.0 | 3.2 | 0.03 | 0.97 | 0.91 | 39 | 1007.3 |
| 20260507223028 | 17 | 0 | 0.0 | 11.3 | 0.03 | 0.97 | 0.91 | 39 | 1007.4 |
| 20260507221528 | 17 | 0 | 0.0 | 9.7 | 0.03 | 0.97 | 0.91 | 38 | 1007.4 |
| 20260507220030 | 17 | 0 | 0.0 | 14.5 | 0.03 | 0.97 | 0.91 | 35 | 1007.4 |
| 20260507214530 | 17 | 293 | 1.6 | 12.9 | 0.00 | 0.94 | 0.89 | 35 | 1007.4 |
| 20260507213029 | 17 | 302 | 1.6 | 9.7 | 0.00 | 0.94 | 0.89 | 38 | 1007.5 |
| 20260507211530 | 17 | 297 | 0.0 | 9.7 | 0.00 | 0.94 | 0.89 | 39 | 1007.4 |
| 20260507210029 | 16 | 0 | 0.0 | 11.3 | 0.00 | 0.94 | 0.89 | 40 | 1007.3 |
| 20260507204530 | 17 | 78 | 0.0 | 9.7 | 0.00 | 0.94 | 0.89 | 37 | 1007.3 |
| 20260507203028 | 17 | 0 | 0.0 | 6.4 | 0.00 | 0.94 | 0.89 | 41 | 1007.4 |
| 20260507201536 | 17 | 336 | 1.6 | 11.3 | 0.00 | 0.94 | 0.89 | 36 | 1007.5 |
| 20260507200027 | 17 | 304 | 1.6 | 14.5 | 0.00 | 0.94 | 0.89 | 37 | 1007.6 |
| 20260507194528 | 17 | 0 | 1.6 | 14.5 | 0.00 | 0.94 | 0.89 | 36 | 1007.7 |
| 20260507193032 | 17 | 94 | 1.6 | 9.7 | 0.00 | 0.94 | 0.89 | 36 | 1007.9 |
| 20260507191534 | 17 | 0 | 0.0 | 6.4 | 0.00 | 0.94 | 0.89 | 38 | 1008.0 |
| 20260507190031 | 16 | 0 | 1.6 | 11.3 | 0.00 | 0.94 | 0.89 | 45 | 1008.3 |
| 20260507184528 | 16 | 0 | 0.0 | 14.5 | 0.00 | 0.94 | 0.89 | 38 | 1008.4 |
| 20260507183038 | 16 | 0 | 0.0 | 11.3 | 0.00 | 0.94 | 0.89 | 39 | 1008.7 |
| 20260507181530 | 16 | 0 | 0.0 | 14.5 | 0.00 | 0.94 | 0.89 | 44 | 1008.8 |
| 20260507180027 | 16 | 0 | 0.0 | 8.0 | 0.00 | 0.94 | 0.89 | 42 | 1008.8 |
| 20260507174532 | 16 | 0 | 0.0 | 11.3 | 0.00 | 0.94 | 0.89 | 46 | 1009.1 |
| 20260507173034 | 16 | 0 | 0.0 | 9.7 | 0.00 | 0.94 | 0.89 | 43 | 1009.5 |
| 20260507171531 | 16 | 264 | 1.6 | 19.3 | 0.00 | 0.94 | 0.89 | 44 | 1009.7 |
| 20260507170030 | 15 | 0 | 0.0 | 16.1 | 0.00 | 0.94 | 0.89 | 45 | 1009.9 |
| 20260507164531 | 15 | 0 | 0.0 | 0.0 | 0.00 | 1.04 | 0.89 | 46 | 1010.2 |
| 20260507163030 | 15 | 0 | 0.0 | 0.0 | 0.00 | 1.04 | 0.89 | 48 | 1010.5 |
| 20260507161529 | 15 | 0 | 0.0 | 12.9 | 0.00 | 1.04 | 0.89 | 48 | 1010.5 |
| 20260507160032 | 14 | 0 | 1.6 | 14.5 | 0.00 | 1.04 | 0.89 | 48 | 1010.9 |
| 20260507154528 | 13 | 291 | 0.0 | 16.1 | 0.00 | 1.24 | 0.89 | 53 | 1010.8 |
| 20260507153031 | 13 | 0 | 1.6 | 22.5 | 0.00 | 1.24 | 0.89 | 52 | 1011.0 |
| 20260507151531 | 13 | 106 | 1.6 | 12.9 | 0.00 | 1.24 | 0.89 | 59 | 1011.1 |
| 20260507150030 | 13 | 268 | 0.0 | 16.1 | 0.00 | 1.24 | 0.89 | 55 | 1011.4 |
| 20260507144528 | 13 | 0 | 0.0 | 11.3 | 0.00 | 1.27 | 0.89 | 60 | 1011.5 |
| 20260507143050 | 12 | 0 | 0.0 | 11.3 | 0.00 | 1.27 | 0.89 | 63 | 1011.7 |
| 20260507141538 | 12 | 271 | 4.8 | 16.1 | 0.00 | 1.27 | 0.89 | 65 | 1011.7 |
| 20260507140028 | 11 | 323 | 1.6 | 14.5 | 0.00 | 1.27 | 0.89 | 69 | 1011.8 |
| 20260507134528 | 11 | 0 | 1.6 | 12.9 | 0.00 | 1.27 | 0.89 | 77 | 1011.7 |
| 20260507133027 | 10 | 0 | 0.0 | 12.9 | 0.00 | 1.27 | 0.89 | 81 | 1011.8 |
| 20260507131527 | 10 | 0 | 0.0 | 6.4 | 0.00 | 1.27 | 0.89 | 87 | 1011.8 |
| 20260507130038 | 10 | 0 | 0.0 | 0.0 | 0.00 | 1.27 | 0.89 | 91 | 1011.7 |
| 20260507124526 | 9 | 0 | 0.0 | 6.4 | 0.00 | 1.27 | 0.89 | 93 | 1012.0 |
| 20260507123030 | 9 | 0 | 0.0 | 9.7 | 0.00 | 1.27 | 0.89 | 95 | 1011.9 |
| 20260507121530 | 10 | 0 | 0.0 | 0.0 | 0.00 | 1.27 | 0.89 | 96 | 1011.9 |
| 20260507120030 | 10 | 0 | 0.0 | 0.0 | 0.00 | 1.27 | 0.89 | 96 | 1011.9 |
| 20260507114531 | 9 | 0 | 0.0 | 0.0 | 0.00 | 1.27 | 0.89 | 96 | 1011.8 |
| 20260507113026 | 9 | 0 | 0.0 | 0.0 | 0.00 | 1.27 | 0.89 | 96 | 1011.7 |
| 20260507111530 | 9 | 0 | 0.0 | 0.0 | 0.00 | 1.27 | 0.89 | 96 | 1011.3 |
| 20260507110030 | 9 | 0 | 0.0 | 0.0 | 0.00 | 1.27 | 0.89 | 95 | 1011.1 |
| 20260507104527 | 9 | 0 | 0.0 | 0.0 | 0.00 | 1.27 | 0.89 | 96 | 1010.9 |
| 20260507103027 | 9 | 0 | 0.0 | 0.0 | 0.00 | 1.27 | 0.89 | 95 | 1010.7 |
| 20260507101525 | 8 | 0 | 0.0 | 0.0 | 0.00 | 1.27 | 0.89 | 95 | 1010.3 |
| 20260507100036 | 8 | 0 | 0.0 | 0.0 | 0.00 | 1.27 | 0.89 | 95 | 1010.4 |
| 20260507094528 | 8 | 0 | 0.0 | 0.0 | 0.00 | 1.27 | 0.89 | 94 | 1010.3 |
| 20260507093028 | 8 | 0 | 0.0 | 0.0 | 0.00 | 1.27 | 0.89 | 94 | 1010.1 |
| 20260507091534 | 8 | 0 | 0.0 | 0.0 | 0.00 | 1.27 | 0.89 | 95 | 1010.0 |
| 20260507090028 | 8 | 0 | 0.0 | 0.0 | 0.00 | 1.27 | 0.89 | 94 | 1010.0 |
| 20260507084530 | 8 | 0 | 0.0 | 0.0 | 0.03 | 1.27 | 0.89 | 94 | 1010.1 |
| 20260507083028 | 8 | 0 | 0.0 | 0.0 | 0.08 | 1.27 | 0.89 | 93 | 1010.0 |
| 20260507081530 | 8 | 0 | 0.0 | 0.0 | 0.13 | 1.27 | 0.89 | 93 | 1010.1 |
| 20260507080028 | 8 | 0 | 0.0 | 0.0 | 0.15 | 1.27 | 0.89 | 93 | 1010.1 |
| 20260507074528 | 9 | 0 | 0.0 | 0.0 | 0.20 | 1.24 | 0.86 | 92 | 1010.6 |
| 20260507073031 | 9 | 0 | 0.0 | 0.0 | 0.15 | 1.19 | 0.81 | 91 | 1010.6 |
| 20260507071533 | 9 | 0 | 0.0 | 1.6 | 0.20 | 1.14 | 0.76 | 91 | 1010.4 |
| 20260507070033 | 10 | 0 | 0.0 | 0.0 | 0.25 | 1.12 | 0.74 | 91 | 1010.5 |
| 20260507064550 | 10 | 0 | 0.0 | 0.0 | 0.33 | 1.04 | 0.66 | 91 | 1010.6 |
| 20260507063033 | 10 | 0 | 0.0 | 0.0 | 0.41 | 1.04 | 0.66 | 91 | 1010.6 |
| 20260507061530 | 10 | 0 | 0.0 | 0.0 | 0.46 | 0.94 | 0.56 | 91 | 1010.4 |
| 20260507060030 | 11 | 0 | 0.0 | 0.0 | 0.43 | 0.86 | 0.48 | 90 | 1010.0 |
| 20260507054527 | 11 | 0 | 0.0 | 0.0 | 0.33 | 0.71 | 0.33 | 90 | 1010.3 |
| 20260507053030 | 11 | 0 | 0.0 | 0.0 | 0.25 | 0.64 | 0.25 | 89 | 1010.0 |
| 20260507051528 | 12 | 0 | 0.0 | 0.0 | 0.08 | 0.46 | 0.08 | 87 | 1010.0 |
| 20260507050039 | 12 | 0 | 0.0 | 4.8 | 0.05 | 0.43 | 0.05 | 85 | 1009.3 |
| 20260507044528 | 13 | 0 | 0.0 | 0.0 | 0.00 | 0.38 | 0.00 | 84 | 1009.5 |
| 20260507043030 | 13 | 0 | 0.0 | 0.0 | 0.00 | 0.38 | 0.00 | 85 | 1008.7 |
| 20260507041529 | 13 | 0 | 0.0 | 8.0 | 0.00 | 0.38 | 0.00 | 83 | 1009.1 |
| 20260507040030 | 13 | 308 | 0.0 | 11.3 | 0.00 | 0.38 | 0.00 | 82 | 1009.3 |
| 20260507034530 | 13 | 0 | 0.0 | 9.7 | 0.00 | 0.38 | 0.38 | 83 | 1009.3 |
| 20260507033028 | 13 | 0 | 0.0 | 0.0 | 0.00 | 0.38 | 0.38 | 84 | 1009.0 |
| 20260507031533 | 14 | 0 | 0.0 | 3.2 | 0.00 | 0.38 | 0.38 | 84 | 1009.0 |
| 20260507030035 | 15 | 0 | 0.0 | 12.9 | 0.00 | 0.38 | 0.38 | 84 | 1008.9 |
| 20260507024529 | 15 | 0 | 0.0 | 9.7 | 0.03 | 0.38 | 0.38 | 86 | 1008.7 |
| 20260507023026 | 16 | 0 | 0.0 | 12.9 | 0.05 | 0.38 | 0.38 | 87 | 1008.6 |
| 20260507021527 | 17 | 0 | 0.0 | 0.0 | 0.05 | 0.38 | 0.38 | 90 | 1008.5 |
| 20260507020029 | 17 | 0 | 0.0 | 0.0 | 0.03 | 0.36 | 0.36 | 89 | 1008.6 |
| 20260507014529 | 17 | 0 | 0.0 | 0.0 | 0.03 | 0.36 | 0.36 | 87 | 1008.6 |
| 20260507013028 | 18 | 0 | 0.0 | 0.0 | 0.00 | 0.33 | 0.33 | 84 | 1008.2 |